Time;durP1;ratioP1;P1;durP2;ratioP2;P2;SDS_P1;SDS_P2;PMS_P1;PMS_P2;Temp;Humidity;BMP_temperature;BMP_pressure;BME280_temperature;BME280_humidity;BME280_pressure;Samples;Min_cycle;Max_cycle;Signal;HPM_P1;HPM_P2
2022/12/01 00:00:13;;;;;;;6.35;4.80;;;;;;;2.35;100.00;101711.88;5022806;28;20041;-75
2022/12/01 00:02:38;;;;;;;6.30;5.10;;;;;;;2.41;100.00;101708.66;5021303;28;20523;-75
2022/12/01 00:05:04;;;;;;;7.30;5.13;;;;;;;2.43;100.00;101704.41;5019791;28;20404;-75
2022/12/01 00:07:29;;;;;;;6.35;4.95;;;;;;;2.45;100.00;101713.19;5020695;28;20512;-74
2022/12/01 00:12:42;;;;;;;6.85;5.25;;;;;;;2.49;100.00;101702.13;5022291;28;20060;-75
2022/12/01 00:15:09;;;;;;;6.13;4.35;;;;;;;2.52;100.00;101710.06;5002278;28;20378;-75
2022/12/01 00:17:35;;;;;;;5.55;4.45;;;;;;;2.51;100.00;101710.88;5019313;28;20468;-75
2022/12/01 00:20:01;;;;;;;5.72;4.40;;;;;;;2.49;100.00;101701.19;5022096;28;20116;-75
2022/12/01 00:22:26;;;;;;;6.10;4.28;;;;;;;2.46;100.00;101703.66;5021287;28;20385;-75
2022/12/01 00:24:51;;;;;;;5.15;4.43;;;;;;;2.45;100.00;101707.09;5020895;28;20041;-75
2022/12/01 00:27:17;;;;;;;4.95;4.05;;;;;;;2.47;100.00;101710.69;5022098;28;20041;-75
2022/12/01 00:29:42;;;;;;;4.90;3.80;;;;;;;2.46;100.00;101708.88;5023403;28;20087;-75
2022/12/01 00:32:08;;;;;;;4.95;3.92;;;;;;;2.45;100.00;101702.78;5019676;28;20033;-75
2022/12/01 00:34:34;;;;;;;4.65;4.07;;;;;;;2.43;100.00;101696.59;5019794;28;20045;-75
2022/12/01 00:36:59;;;;;;;5.15;4.05;;;;;;;2.37;100.00;101691.13;5020660;28;20036;-75
2022/12/01 00:39:24;;;;;;;6.03;4.10;;;;;;;2.38;100.00;101696.41;5003277;28;20384;-75
2022/12/01 00:41:50;;;;;;;4.65;3.60;;;;;;;2.39;100.00;101697.31;5022014;28;20122;-75
2022/12/01 00:44:15;;;;;;;4.93;3.80;;;;;;;2.28;100.00;101688.09;5019927;28;20033;-75
2022/12/01 00:46:40;;;;;;;4.82;3.55;;;;;;;2.29;100.00;101695.09;5025688;28;20545;-75
2022/12/01 00:49:06;;;;;;;5.40;4.15;;;;;;;2.32;100.00;101703.03;5019826;28;20623;-75
2022/12/01 00:51:31;;;;;;;4.50;3.35;;;;;;;2.31;100.00;101709.09;5021867;28;20044;-74
2022/12/01 00:53:57;;;;;;;4.38;3.22;;;;;;;2.33;100.00;101715.22;5020896;28;20033;-75
2022/12/01 00:56:22;;;;;;;4.97;4.22;;;;;;;2.43;100.00;101714.84;5020368;28;20595;-75
2022/12/01 00:58:47;;;;;;;4.60;3.50;;;;;;;2.46;100.00;101714.09;5021900;28;20124;-75
2022/12/01 01:01:13;;;;;;;4.72;3.75;;;;;;;2.41;100.00;101717.41;5023446;28;20091;-75
2022/12/01 01:03:38;;;;;;;4.35;3.72;;;;;;;2.39;100.00;101715.53;5022460;28;20042;-74
2022/12/01 01:06:09;;;;;;;4.70;3.67;;;;;;;2.41;100.00;101706.97;5021437;28;20053;-75
2022/12/01 01:08:35;;;;;;;4.82;3.70;;;;;;;2.40;100.00;101717.31;5024151;28;20051;-74
2022/12/01 01:11:01;;;;;;;4.72;3.60;;;;;;;2.40;100.00;101717.31;5023264;28;20037;-75
2022/12/01 01:13:27;;;;;;;5.45;4.55;;;;;;;2.34;100.00;101719.66;5022470;28;20439;-75
2022/12/01 01:16:00;;;;;;;4.68;3.55;;;;;;;2.33;100.00;101715.22;5018954;28;20038;-75
2022/12/01 01:18:25;;;;;;;;;;;;;;;2.28;100.00;101717.66;5021348;28;20077;-75
2022/12/01 01:20:58;;;;;;;4.95;3.55;;;;;;;2.27;100.00;101712.34;5021399;28;20051;-75
2022/12/01 01:23:24;;;;;;;4.60;3.70;;;;;;;2.21;100.00;101705.16;5019092;28;20045;-74
2022/12/01 01:25:49;;;;;;;5.20;3.95;;;;;;;2.19;100.00;101710.28;5021744;28;20037;-75
2022/12/01 01:28:14;;;;;;;5.22;3.90;;;;;;;2.16;100.00;101712.75;5020279;28;20033;-75
2022/12/01 01:30:40;;;;;;;5.30;4.20;;;;;;;2.14;100.00;101714.38;5023467;28;20047;-75
2022/12/01 01:33:05;;;;;;;5.05;4.03;;;;;;;2.17;100.00;101709.34;5025151;28;20116;-75
2022/12/01 01:35:30;;;;;;;5.05;4.07;;;;;;;2.15;100.00;101713.59;5022403;28;20041;-75
2022/12/01 01:37:56;;;;;;;4.75;3.55;;;;;;;2.13;100.00;101712.63;5022601;28;20064;-75
2022/12/01 01:40:21;;;;;;;4.47;3.65;;;;;;;2.13;100.00;101711.72;5025780;28;20041;-74
2022/12/01 01:42:46;;;;;;;4.53;3.55;;;;;;;2.12;100.00;101712.53;5002458;28;20034;-75
2022/12/01 01:45:23;;;;;;;10.20;9.50;;;;;;;2.13;100.00;101710.00;5025696;28;20061;-75
2022/12/01 01:47:51;;;;;;;18.42;12.90;;;;;;;2.16;100.00;101712.75;5025716;28;20103;-75
2022/12/01 01:50:20;;;;;;;18.75;12.73;;;;;;;2.15;100.00;101712.69;5005983;28;20087;-75
2022/12/01 01:52:49;;;;;;;20.92;13.13;;;;;;;2.10;100.00;101720.28;5024839;28;20099;-75
2022/12/01 01:55:15;;;;;;;20.90;13.68;;;;;;;2.11;100.00;101722.06;5024940;28;20500;-75
2022/12/01 01:57:42;;;;;;;20.95;13.18;;;;;;;2.13;100.00;101717.81;5021849;28;20056;-75
2022/12/01 02:00:11;;;;;;;21.40;15.07;;;;;;;2.12;100.00;101715.13;5028077;28;20037;-75
2022/12/01 02:02:43;;;;;;;20.65;13.02;;;;;;;2.17;100.00;101717.16;5003379;28;20042;-75
2022/12/01 02:05:14;;;;;;;20.73;12.73;;;;;;;2.08;100.00;101711.50;5021670;28;20029;-75
2022/12/01 02:07:40;;;;;;;19.80;13.20;;;;;;;2.15;100.00;101717.91;5022247;28;20471;-74
2022/12/01 02:10:09;;;;;;;23.65;14.57;;;;;;;2.17;100.00;101722.38;5025612;28;20523;-74
2022/12/01 02:12:57;;;;;;;20.50;12.65;;;;;;;2.18;100.00;101713.72;5029572;28;20108;-74
2022/12/01 02:15:23;;;;;;;17.63;12.07;;;;;;;2.13;100.00;101704.78;5025466;28;20365;-74
2022/12/01 02:18:06;;;;;;;17.00;12.57;;;;;;;2.06;100.00;101705.31;5017973;28;20099;-74
2022/12/01 02:20:51;;;;;;;18.23;12.35;;;;;;;2.09;100.00;101707.19;5023689;28;20048;-74
2022/12/01 02:23:48;;;;;;;18.13;12.80;;;;;;;2.11;100.00;101705.53;5026123;28;20048;-74
2022/12/01 02:26:38;;;;;;;17.95;12.50;;;;;;;2.09;100.00;101712.38;5023850;28;20852;-74
2022/12/01 02:29:24;;;;;;;16.23;11.95;;;;;;;2.05;100.00;101715.69;5023935;28;20416;-75
2022/12/01 02:32:14;;;;;;;18.88;12.73;;;;;;;2.09;100.00;101709.78;5023695;28;20492;-74
2022/12/01 02:34:50;;;;;;;19.30;11.57;;;;;;;2.13;100.00;101707.41;5020987;28;20041;-75
2022/12/01 02:37:31;;;;;;;16.23;11.50;;;;;;;2.13;100.00;101710.00;5021230;28;20167;-75
2022/12/01 02:40:08;;;;;;;19.48;13.07;;;;;;;2.13;100.00;101707.41;5022046;28;20038;-74
2022/12/01 02:43:03;;;;;;;18.83;13.65;;;;;;;2.05;100.00;101706.16;5021981;28;20042;-74
2022/12/01 02:45:39;;;;;;;20.33;14.45;;;;;;;2.06;100.00;101710.53;5024393;28;20068;-75
2022/12/01 02:48:10;;;;;;;16.10;12.07;;;;;;;2.08;100.00;101713.22;5021530;28;20497;-75
2022/12/01 02:50:38;;;;;;;19.05;13.10;;;;;;;2.09;100.00;101709.78;5023198;28;20052;-74
2022/12/01 02:53:06;;;;;;;20.48;13.00;;;;;;;2.15;100.00;101723.13;5023687;28;20045;-75
2022/12/01 02:55:32;;;;;;;20.45;13.18;;;;;;;2.13;100.00;101714.31;5020939;28;20038;-74
2022/12/01 02:57:57;;;;;;;19.17;12.32;;;;;;;2.11;100.00;101706.44;5024160;28;20169;-74
2022/12/01 03:00:22;;;;;;;19.77;13.68;;;;;;;2.06;100.00;101707.94;5021909;28;20038;-74
2022/12/01 03:02:54;;;;;;;17.63;13.15;;;;;;;2.09;100.00;101713.28;5023169;28;20033;-75
2022/12/01 03:05:52;;;;;;;17.15;11.05;;;;;;;2.07;100.00;101708.81;5020358;28;20120;-75
2022/12/01 03:08:50;;;;;;;19.42;11.90;;;;;;;1.96;100.00;101716.13;5025602;28;20038;-75
2022/12/01 03:11:26;;;;;;;17.00;11.93;;;;;;;1.87;100.00;101719.19;5000393;28;20049;-75
2022/12/01 03:14:02;;;;;;;15.65;11.10;;;;;;;1.77;100.00;101708.25;5020813;28;20112;-75
2022/12/01 03:16:52;;;;;;;15.88;11.18;;;;;;;1.85;100.00;101707.78;5027127;28;20025;-75
2022/12/01 03:19:33;;;;;;;14.20;10.30;;;;;;;1.92;100.00;101715.09;5006939;28;20041;-75
2022/12/01 03:22:07;;;;;;;16.35;11.23;;;;;;;1.87;100.00;101715.69;5021245;28;20040;-75
2022/12/01 03:24:34;;;;;;;18.15;12.50;;;;;;;1.87;100.00;101715.69;5004187;28;20051;-75
2022/12/01 03:27:01;;;;;;;17.23;11.13;;;;;;;1.86;100.00;101716.50;5023142;28;20037;-75
2022/12/01 03:29:32;;;;;;;14.15;10.60;;;;;;;1.85;100.00;101713.00;5022025;28;20492;-75
2022/12/01 03:32:04;;;;;;;14.65;10.75;;;;;;;1.87;100.00;101716.59;5005000;28;20038;-75
2022/12/01 03:34:44;;;;;;;17.10;11.95;;;;;;;1.93;100.00;101721.19;5022023;28;20675;-75
2022/12/01 03:37:19;;;;;;;13.77;10.48;;;;;;;1.96;100.00;101716.13;5021676;28;20493;-75
2022/12/01 03:39:47;;;;;;;15.80;10.23;;;;;;;1.96;100.00;101716.13;5020321;28;20053;-75
2022/12/01 03:42:17;;;;;;;14.98;11.18;;;;;;;2.00;100.00;101725.88;5023276;28;20048;-75
2022/12/01 03:44:48;;;;;;;15.65;11.15;;;;;;;2.06;100.00;101723.56;5023679;28;20106;-75
2022/12/01 03:47:19;;;;;;;14.77;11.18;;;;;;;2.11;100.00;101716.84;5020152;28;20164;-75
2022/12/01 03:49:46;;;;;;;17.77;13.02;;;;;;;2.19;100.00;101722.41;5020815;28;20037;-75
2022/12/01 03:52:33;;;;;;;16.80;12.77;;;;;;;2.22;100.00;101722.56;5022177;28;20033;-75
2022/12/01 03:55:12;;;;;;;13.75;10.77;;;;;;;2.22;100.00;101719.06;5021148;28;20045;-75
2022/12/01 03:58:05;;;;;;;13.65;9.82;;;;;;;2.22;100.00;101719.06;5002138;28;20045;-75
2022/12/01 04:00:30;;;;;;;;;;;;;;;2.10;100.00;101716.78;5020624;28;20038;-74
2022/12/01 04:05:25;;;;;;;14.35;11.00;;;;;;;1.91;100.00;101721.13;4959115;28;20043;-73
2022/12/01 04:07:51;;;;;;;16.13;12.18;;;;;;;1.95;100.00;101716.94;4963949;28;20500;-74
2022/12/01 04:10:17;;;;;;;16.73;12.68;;;;;;;1.97;100.00;101718.81;4973776;28;20039;-74
2022/12/01 04:12:42;;;;;;;18.88;11.85;;;;;;;1.98;100.00;101722.31;4969088;28;20038;-74
2022/12/01 04:15:11;;;;;;;13.65;10.02;;;;;;;2.02;100.00;101715.50;4961509;28;20039;-74
2022/12/01 04:17:42;;;;;;;15.55;11.63;;;;;;;2.00;100.00;101718.06;4977672;28;20141;-74
2022/12/01 04:20:08;;;;;;;15.05;11.02;;;;;;;2.00;100.00;101723.28;4964028;28;20046;-74
2022/12/01 04:22:33;;;;;;;13.65;10.20;;;;;;;1.95;100.00;101717.84;4964548;28;20042;-74
2022/12/01 04:24:59;;;;;;;14.70;10.82;;;;;;;1.90;100.00;101711.50;4964218;28;20516;-74
2022/12/01 04:27:24;;;;;;;12.45;10.57;;;;;;;1.89;100.00;101716.66;4961947;28;20071;-75
2022/12/01 04:29:49;;;;;;;12.10;9.60;;;;;;;1.91;100.00;101720.22;4963994;28;20113;-75
2022/12/01 04:32:15;;;;;;;14.05;11.38;;;;;;;1.91;100.00;101720.22;4963029;28;20402;-74
2022/12/01 04:34:41;;;;;;;15.13;11.45;;;;;;;1.91;100.00;101720.22;4958445;28;20039;-75
2022/12/01 04:37:06;;;;;;;12.93;9.95;;;;;;;1.82;100.00;101722.38;4964029;28;20038;-75
2022/12/01 04:39:33;;;;;;;13.77;10.25;;;;;;;1.78;100.00;101725.66;4964372;28;20031;-75
2022/12/01 04:41:58;;;;;;;12.43;9.27;;;;;;;1.78;100.00;101730.84;4961710;28;20121;-75
2022/12/01 04:44:23;;;;;;;12.45;9.38;;;;;;;1.77;100.00;101731.69;4963021;28;20467;-75
2022/12/01 04:46:51;;;;;;;11.45;9.32;;;;;;;1.80;100.00;101729.22;4962435;28;20050;-75
2022/12/01 04:49:16;;;;;;;13.77;9.90;;;;;;;1.80;100.00;101734.44;4960122;28;20383;-75
2022/12/01 04:51:41;;;;;;;10.32;8.90;;;;;;;1.74;100.00;101741.13;4969357;28;20030;-75
2022/12/01 04:54:07;;;;;;;12.82;10.07;;;;;;;1.80;100.00;101739.63;4965329;28;20055;-75
2022/12/01 04:56:32;;;;;;;11.93;9.00;;;;;;;1.83;100.00;101737.19;4963324;28;20038;-75
2022/12/01 04:58:58;;;;;;;12.25;9.18;;;;;;;1.83;100.00;101739.78;4962011;28;20051;-75
2022/12/01 05:01:24;;;;;;;12.00;9.38;;;;;;;1.80;100.00;101747.44;4963741;28;20054;-75
2022/12/01 05:03:49;;;;;;;12.73;8.88;;;;;;;1.81;100.00;101741.41;4966349;28;20474;-75
2022/12/01 05:06:19;;;;;;;12.38;8.98;;;;;;;1.83;100.00;101751.06;4982118;28;20070;-75
2022/12/01 05:08:44;;;;;;;12.90;10.57;;;;;;;1.83;100.00;101744.97;4965066;28;20043;-74
2022/12/01 05:11:11;;;;;;;11.70;9.35;;;;;;;1.88;100.00;101749.59;4966984;28;20039;-75
2022/12/01 05:13:39;;;;;;;12.07;10.27;;;;;;;1.91;100.00;101748.84;4967596;28;20517;-75
2022/12/01 05:16:13;;;;;;;10.05;8.75;;;;;;;1.98;100.00;101745.72;4962313;28;20099;-75
2022/12/01 05:18:38;;;;;;;11.95;9.60;;;;;;;2.03;100.00;101754.66;4970457;28;20030;-75
2022/12/01 05:21:06;;;;;;;11.77;9.30;;;;;;;2.04;100.00;101750.34;4970856;28;20544;-75
2022/12/01 05:23:34;;;;;;;13.05;9.85;;;;;;;2.05;100.00;101755.63;4966177;28;20466;-75
2022/12/01 05:26:01;;;;;;;14.23;9.88;;;;;;;2.07;100.00;101751.41;4965064;28;20035;-75
2022/12/01 05:28:27;;;;;;;12.07;9.32;;;;;;;2.00;100.00;101754.50;4968037;28;20074;-74
2022/12/01 05:30:53;;;;;;;11.70;8.95;;;;;;;2.02;100.00;101752.88;4974535;28;20441;-74
2022/12/01 05:33:23;;;;;;;11.40;9.20;;;;;;;2.11;100.00;101752.41;4974719;28;20125;-73
2022/12/01 05:35:50;;;;;;;15.52;10.40;;;;;;;2.07;100.00;101754.00;4974686;28;20031;-75
2022/12/01 05:38:15;;;;;;;16.33;10.65;;;;;;;2.02;100.00;101752.88;4971002;28;20030;-75
2022/12/01 05:40:41;;;;;;;14.80;10.05;;;;;;;2.04;100.00;101761.63;4964787;28;20502;-75
2022/12/01 05:43:07;;;;;;;13.00;9.50;;;;;;;2.01;100.00;101760.59;4972664;28;20043;-75
2022/12/01 05:45:33;;;;;;;14.68;10.35;;;;;;;2.01;100.00;101752.78;4972381;28;20035;-75
2022/12/01 05:48:00;;;;;;;15.40;10.15;;;;;;;2.06;100.00;101754.81;4974799;28;20078;-75
2022/12/01 05:50:27;;;;;;;14.30;10.40;;;;;;;2.06;100.00;101756.53;4975705;28;20034;-75
2022/12/01 05:52:54;;;;;;;13.60;10.30;;;;;;;2.06;100.00;101753.91;4968408;28;20045;-75
2022/12/01 05:55:19;;;;;;;12.35;9.40;;;;;;;2.04;100.00;101745.13;4973482;28;20413;-74
2022/12/01 05:57:45;;;;;;;13.75;10.65;;;;;;;2.02;100.00;101752.88;4969778;28;20050;-75
2022/12/01 06:00:12;;;;;;;12.45;9.40;;;;;;;2.09;100.00;101749.72;4973727;28;20035;-75
2022/12/01 06:02:38;;;;;;;15.00;11.75;;;;;;;1.97;100.00;101750.06;4973614;28;20038;-75
2022/12/01 06:05:04;;;;;;;13.82;10.02;;;;;;;1.92;100.00;101753.25;4953446;28;20055;-75
2022/12/01 06:07:31;;;;;;;11.68;8.82;;;;;;;1.93;100.00;101749.81;4966932;28;20059;-75
2022/12/01 06:09:56;;;;;;;12.32;9.45;;;;;;;1.94;100.00;101746.41;4963647;28;20106;-75
2022/12/01 06:12:21;;;;;;;12.10;8.80;;;;;;;1.98;100.00;101745.72;4970045;28;20417;-75
2022/12/01 06:14:46;;;;;;;10.38;8.30;;;;;;;1.98;100.00;101757.03;4966992;28;20027;-75
2022/12/01 06:17:12;;;;;;;12.48;9.57;;;;;;;1.98;100.00;101748.34;4964641;28;20035;-75
2022/12/01 06:19:38;;;;;;;13.02;9.88;;;;;;;1.92;100.00;101748.94;4962504;28;20118;-75
2022/12/01 06:22:03;;;;;;;13.25;9.98;;;;;;;1.73;100.00;101752.38;4981384;28;20130;-75
2022/12/01 06:24:29;;;;;;;11.95;9.02;;;;;;;1.68;100.00;101751.25;4963753;28;20039;-75
2022/12/01 06:26:54;;;;;;;11.07;8.65;;;;;;;1.66;100.00;101758.06;4965311;28;20042;-74
2022/12/01 06:29:19;;;;;;;11.23;8.75;;;;;;;1.68;100.00;101760.75;4964799;28;20043;-75
2022/12/01 06:31:45;;;;;;;11.80;8.98;;;;;;;1.81;100.00;101770.03;4963060;28;20054;-75
2022/12/01 06:34:10;;;;;;;11.80;9.15;;;;;;;1.84;100.00;101767.63;4961977;28;20146;-75
2022/12/01 06:36:35;;;;;;;12.18;9.48;;;;;;;1.83;100.00;101771.91;4966503;28;20509;-75
2022/12/01 06:39:05;;;;;;;12.75;9.07;;;;;;;1.92;100.00;101766.28;4963591;28;20034;-75
2022/12/01 06:41:30;;;;;;;11.60;9.18;;;;;;;1.94;100.00;101768.13;4970537;28;20173;-74
2022/12/01 06:43:56;;;;;;;11.40;8.63;;;;;;;1.91;100.00;101770.59;4981385;28;20114;-75
2022/12/01 06:46:21;;;;;;;10.38;8.52;;;;;;;1.83;100.00;101777.09;4966005;28;20173;-75
2022/12/01 06:48:48;;;;;;;10.35;8.75;;;;;;;1.89;100.00;101781.75;4969878;28;20106;-75
2022/12/01 06:51:13;;;;;;;9.57;8.30;;;;;;;1.96;100.00;101778.59;4983495;28;20482;-75
2022/12/01 06:53:38;;;;;;;10.43;9.00;;;;;;;1.98;100.00;101787.38;4965890;28;20150;-75
2022/12/01 06:56:04;;;;;;;9.68;8.02;;;;;;;1.90;100.00;101779.19;4968532;28;20043;-74
2022/12/01 06:58:30;;;;;;;9.82;7.68;;;;;;;1.90;100.00;101789.63;4967560;28;20524;-75
2022/12/01 07:00:57;;;;;;;10.25;8.18;;;;;;;1.87;100.00;101796.41;4966181;28;20038;-75
2022/12/01 07:03:22;;;;;;;9.07;7.60;;;;;;;1.89;100.00;101787.84;4966227;28;20083;-75
2022/12/01 07:05:57;;;;;;;8.73;7.13;;;;;;;1.92;100.00;101793.19;4962139;28;20063;-75
2022/12/01 07:08:23;;;;;;;10.73;8.73;;;;;;;1.93;100.00;101794.97;4964120;28;20053;-75
2022/12/01 07:11:11;;;;;;;8.43;7.32;;;;;;;1.97;100.00;101796.03;4966886;28;20035;-75
2022/12/01 07:13:37;;;;;;;9.60;8.02;;;;;;;1.85;100.00;101803.22;4964427;28;20043;-75
2022/12/01 07:16:03;;;;;;;8.32;7.35;;;;;;;1.86;100.00;101798.13;4962706;28;20169;-75
2022/12/01 07:18:28;;;;;;;9.35;7.45;;;;;;;1.85;100.00;101803.22;4965940;28;20092;-75
2022/12/01 07:21:01;;;;;;;9.88;8.23;;;;;;;1.86;100.00;101805.00;4965589;28;20393;-75
2022/12/01 07:23:27;;;;;;;9.27;8.05;;;;;;;1.95;100.00;101808.06;4964012;28;20050;-75
2022/12/01 07:26:03;;;;;;;9.98;8.43;;;;;;;1.97;100.00;101802.13;4962641;28;20031;-75
2022/12/01 07:28:29;;;;;;;9.07;7.88;;;;;;;1.90;100.00;101802.63;4968830;28;20035;-75
2022/12/01 07:31:06;;;;;;;9.02;7.88;;;;;;;1.94;100.00;101803.69;4964782;28;20536;-75
2022/12/01 07:33:32;;;;;;;9.07;7.85;;;;;;;1.99;100.00;101799.56;4976319;28;20046;-75
2022/12/01 07:35:57;;;;;;;7.53;6.72;;;;;;;2.06;100.00;101799.06;4965575;28;20035;-75
2022/12/01 07:38:23;;;;;;;8.48;7.28;;;;;;;2.01;100.00;101797.94;4967668;28;20489;-75
2022/12/01 07:40:48;;;;;;;8.63;7.53;;;;;;;2.06;100.00;101803.41;4965623;28;20034;-75
2022/12/01 07:43:13;;;;;;;10.38;9.25;;;;;;;2.04;99.76;101808.50;4965570;28;20039;-75
2022/12/01 07:45:39;;;;;;;11.88;9.98;;;;;;;2.01;100.00;101802.28;4961743;28;20031;-75
2022/12/01 07:48:04;;;;;;;11.93;9.80;;;;;;;2.03;100.00;101811.06;4968983;28;20039;-75
2022/12/01 07:50:30;;;;;;;10.27;8.90;;;;;;;2.08;100.00;101802.66;4969145;28;20061;-75
2022/12/01 07:52:55;;;;;;;11.65;10.00;;;;;;;2.17;100.00;101799.59;4990057;28;20048;-75
2022/12/01 07:55:20;;;;;;;12.15;10.23;;;;;;;2.18;99.80;101799.66;4970420;28;20035;-75
2022/12/01 07:57:46;;;;;;;11.77;10.38;;;;;;;2.19;100.00;101803.16;4964279;28;20750;-75
2022/12/01 08:00:12;;;;;;;12.05;10.68;;;;;;;2.24;99.72;101806.00;4964702;28;20043;-75
2022/12/01 08:02:37;;;;;;;12.80;10.98;;;;;;;2.25;99.70;101802.56;4960995;28;20099;-75
2022/12/01 08:05:03;;;;;;;12.57;11.27;;;;;;;2.23;100.00;101812.00;4967833;28;20588;-75
2022/12/01 08:07:28;;;;;;;11.48;10.05;;;;;;;2.27;99.78;101807.03;4962636;28;20497;-75
2022/12/01 08:09:54;;;;;;;12.02;10.75;;;;;;;2.31;99.09;101808.09;4961113;28;20038;-75
2022/12/01 08:12:19;;;;;;;10.27;8.88;;;;;;;2.31;98.86;101813.28;4963152;28;20043;-75
2022/12/01 08:14:44;;;;;;;12.52;10.35;;;;;;;2.31;98.76;101813.28;4962945;28;20569;-75
2022/12/01 08:17:09;;;;;;;11.60;10.18;;;;;;;2.35;99.08;101812.59;4961606;28;20482;-75
2022/12/01 08:19:35;;;;;;;11.95;10.15;;;;;;;2.38;98.84;101812.75;4968665;28;20149;-75
2022/12/01 08:22:00;;;;;;;12.82;11.40;;;;;;;2.42;98.94;101819.91;4965543;28;20066;-75
2022/12/01 08:24:26;;;;;;;13.88;12.02;;;;;;;2.41;98.71;101819.00;4967605;28;20120;-75
2022/12/01 08:26:51;;;;;;;12.20;10.38;;;;;;;2.38;98.70;101823.16;4966684;28;20031;-75
2022/12/01 08:29:17;;;;;;;11.73;10.27;;;;;;;2.42;98.45;101819.91;4962681;28;20126;-75
2022/12/01 08:31:42;;;;;;;12.05;9.63;;;;;;;2.42;98.69;101820.78;4962070;28;20126;-75
2022/12/01 08:34:07;;;;;;;11.75;10.27;;;;;;;2.42;98.50;101822.50;4960264;28;20051;-75
2022/12/01 08:36:33;;;;;;;10.77;9.60;;;;;;;2.48;99.00;101814.97;4965095;28;20039;-75
2022/12/01 08:38:59;;;;;;;11.18;9.98;;;;;;;2.59;98.53;101816.38;4963984;28;20093;-75
2022/12/01 08:41:25;;;;;;;13.18;11.02;;;;;;;2.73;97.82;101823.97;4965279;28;20026;-75
2022/12/01 08:43:51;;;;;;;11.50;10.13;;;;;;;2.70;96.98;101824.72;4962828;28;20134;-75
2022/12/01 08:46:16;;;;;;;11.43;10.18;;;;;;;2.62;96.77;101821.75;4962909;28;20126;-75
2022/12/01 08:48:41;;;;;;;10.20;9.13;;;;;;;2.61;96.93;101825.16;4961699;28;20074;-75
2022/12/01 08:51:10;;;;;;;12.10;9.82;;;;;;;2.72;97.24;101827.38;4965780;28;20038;-75
2022/12/01 08:53:37;;;;;;;10.90;9.68;;;;;;;2.75;96.37;101827.50;4964049;28;20041;-75
2022/12/01 08:56:06;;;;;;;12.55;10.27;;;;;;;2.77;95.80;101823.25;4973626;28;20071;-75
2022/12/01 08:58:31;;;;;;;9.45;8.35;;;;;;;2.72;96.34;101825.66;4980592;28;20097;-75
2022/12/01 09:01:02;;;;;;;11.10;10.00;;;;;;;2.76;95.90;101827.59;4965378;28;20035;-75
2022/12/01 09:03:27;;;;;;;11.68;10.38;;;;;;;2.74;95.74;101831.81;4966698;28;20042;-75
2022/12/01 09:05:52;;;;;;;11.18;9.68;;;;;;;2.76;95.71;101831.91;4965255;28;20041;-75
2022/12/01 09:08:30;;;;;;;9.82;8.82;;;;;;;2.83;95.92;101828.78;4964045;28;20034;-76
2022/12/01 09:10:55;;;;;;;10.68;9.57;;;;;;;2.92;95.53;101828.28;4969863;28;20109;-75
2022/12/01 09:13:21;;;;;;;11.10;9.55;;;;;;;2.93;94.99;101820.53;4966058;28;20110;-75
2022/12/01 09:16:01;;;;;;;10.85;9.55;;;;;;;2.89;94.71;101826.44;4964145;28;20069;-75
2022/12/01 09:18:27;;;;;;;11.00;9.90;;;;;;;2.87;94.55;101828.06;4964967;28;20050;-75
2022/12/01 09:20:53;;;;;;;10.60;9.50;;;;;;;2.89;94.35;101833.38;4968091;28;20122;-75
2022/12/01 09:23:20;;;;;;;11.38;10.18;;;;;;;2.90;94.62;101838.63;4963509;28;20118;-75
2022/12/01 09:25:45;;;;;;;12.13;10.93;;;;;;;2.88;94.70;101837.66;4965976;28;20672;-75
2022/12/01 09:28:11;;;;;;;11.60;10.25;;;;;;;2.85;94.91;101829.72;4964776;28;20032;-75
2022/12/01 09:30:36;;;;;;;10.82;9.45;;;;;;;2.84;95.12;101839.25;4963682;28;20121;-75
2022/12/01 09:33:02;;;;;;;10.82;9.63;;;;;;;2.91;94.35;101830.00;4963881;28;20066;-75
2022/12/01 09:35:30;;;;;;;9.95;8.98;;;;;;;2.90;94.65;101827.31;4968860;28;20066;-75
2022/12/01 09:37:56;;;;;;;34.22;22.23;;;;;;;2.89;94.47;101826.44;4967447;28;20056;-74
2022/12/01 09:40:29;;;;;;;35.42;24.33;;;;;;;2.93;94.33;101833.56;4979991;28;20069;-75
2022/12/01 09:42:54;;;;;;;35.17;23.92;;;;;;;2.94;93.92;101824.94;4962484;28;20092;-74
2022/12/01 09:45:26;;;;;;;36.92;23.73;;;;;;;2.85;93.31;101816.69;4959482;28;20453;-75
2022/12/01 09:47:54;;;;;;;37.00;23.58;;;;;;;2.83;94.56;101816.63;4962607;28;20035;-75
2022/12/01 09:50:24;;;;;;;35.35;22.40;;;;;;;2.80;93.89;101819.09;4979750;28;20105;-75
2022/12/01 09:53:18;;;;;;;35.58;21.73;;;;;;;2.77;93.98;101813.72;4984267;28;20058;-75
2022/12/01 09:55:45;;;;;;;35.78;22.85;;;;;;;2.77;94.36;101813.72;4965999;28;20058;-75
2022/12/01 09:58:17;;;;;;;35.83;21.60;;;;;;;2.83;94.72;101815.75;4964130;28;20387;-75
2022/12/01 10:00:44;;;;;;;35.78;22.50;;;;;;;2.74;94.58;101807.47;4966494;28;20117;-75
2022/12/01 10:03:28;;;;;;;39.13;23.10;;;;;;;2.63;94.98;101797.44;4967984;28;20039;-75
2022/12/01 10:05:58;;;;;;;36.60;22.92;;;;;;;2.57;95.36;101802.38;4977837;28;20414;-76
2022/12/01 10:08:29;;;;;;;35.85;23.98;;;;;;;2.58;95.32;101796.34;4965921;28;20042;-76
2022/12/01 10:10:59;;;;;;;41.22;24.00;;;;;;;2.58;96.06;101791.13;4971090;28;20035;-76
2022/12/01 10:13:27;;;;;;;44.17;27.38;;;;;;;2.63;95.98;101791.34;4966618;28;20031;-76
2022/12/01 10:15:52;;;;;;;41.60;23.95;;;;;;;2.62;95.81;101793.06;4969012;28;20027;-77
2022/12/01 10:19:00;;;;;;;39.65;25.02;;;;;;;2.63;95.37;101793.97;4964339;28;20046;-76
2022/12/01 10:21:49;;;;;;;39.17;25.35;;;;;;;2.80;95.53;101799.94;4966747;28;20042;-76
2022/12/01 10:24:32;;;;;;;33.97;22.08;;;;;;;2.88;94.32;101800.28;4966540;28;20167;-76
2022/12/01 10:27:16;;;;;;;30.65;20.55;;;;;;;2.93;93.68;101801.38;4966331;28;20065;-76
2022/12/01 10:29:57;;;;;;;29.33;19.48;;;;;;;2.97;93.23;101799.00;4980032;28;20077;-76
2022/12/01 10:32:33;;;;;;;46.35;25.88;;;;;;;3.05;93.84;101792.41;4969287;28;20027;-77
2022/12/01 10:34:58;;;;;;;56.22;31.20;;;;;;;3.12;94.51;101782.22;4965314;28;20043;-76
2022/12/01 10:37:29;;;;;;;50.20;29.33;;;;;;;3.22;94.39;101790.53;4977103;28;20054;-76
2022/12/01 10:39:56;;;;;;;41.42;25.17;;;;;;;3.28;93.30;101782.97;4962487;28;20050;-76
2022/12/01 10:42:31;;;;;;;32.08;21.63;;;;;;;3.23;92.36;101781.88;4963399;28;20118;-76
2022/12/01 10:45:01;;;;;;;33.90;20.77;;;;;;;3.23;91.86;101787.09;4966297;28;20049;-76
2022/12/01 10:47:27;;;;;;;34.42;21.10;;;;;;;3.21;91.95;101783.53;4978018;28;20130;-76
2022/12/01 10:49:53;;;;;;;30.25;19.17;;;;;;;3.19;91.74;101779.06;4963509;28;20042;-76
2022/12/01 10:52:33;;;;;;;30.80;19.83;;;;;;;3.19;91.82;101779.06;4965409;28;20038;-76
2022/12/01 10:55:00;;;;;;;35.85;22.10;;;;;;;3.25;92.24;101781.97;4965909;28;20684;-76
2022/12/01 10:57:29;;;;;;;33.30;22.20;;;;;;;3.27;91.91;101782.91;4968574;28;20078;-76
2022/12/01 10:59:58;;;;;;;31.92;22.05;;;;;;;3.27;91.63;101788.13;4964813;28;20034;-76
2022/12/01 11:02:26;;;;;;;31.92;20.38;;;;;;;3.26;91.93;101774.19;4965116;28;20098;-75
2022/12/01 11:05:03;;;;;;;33.75;22.27;;;;;;;3.24;91.80;101773.22;4961843;28;20059;-75
2022/12/01 11:07:33;;;;;;;30.45;19.65;;;;;;;3.28;91.95;101779.47;4969191;28;20042;-75
2022/12/01 11:10:16;;;;;;;30.92;20.00;;;;;;;3.31;91.42;101774.38;4962116;28;20039;-76
2022/12/01 11:12:52;;;;;;;30.92;21.17;;;;;;;3.27;91.31;101762.94;4969820;28;20042;-76
2022/12/01 11:15:24;;;;;;;30.55;20.55;;;;;;;3.26;91.44;101770.69;4967494;28;20042;-76
2022/12/01 11:18:00;;;;;;;31.42;19.98;;;;;;;3.31;91.65;101770.91;4968454;28;20520;-76
2022/12/01 11:20:33;;;;;;;31.23;19.48;;;;;;;3.37;91.08;101773.75;4970231;28;20058;-76
2022/12/01 11:23:20;;;;;;;28.35;18.90;;;;;;;3.40;90.99;101764.31;4965126;28;20083;-75
2022/12/01 11:26:04;;;;;;;27.90;18.98;;;;;;;3.43;90.55;101766.19;4962623;28;20484;-76
2022/12/01 11:28:31;;;;;;;27.02;18.70;;;;;;;3.41;90.68;101760.91;4965078;28;20039;-76
2022/12/01 11:31:00;;;;;;;29.63;19.77;;;;;;;3.43;90.09;101761.88;4963076;28;20129;-76